This is the latest recevied weather packets stored in our database for station/object VK3AGD-9. If no packets are shown the sender has not sent any weather packets the latest 10 day(s).
| Time | Temp. | Humidity | Pressure | Rain* | Wind** | Luminosity | Snow |
|---|---|---|---|---|---|---|---|
| 1787876165 | 13.89° C | 72% | - | 0 mm | - | - | - |
| 1787875300 | 13.89° C | 70% | - | 0 mm | - | - | - |
| 1787874340 | 13.89° C | 70% | - | 0 mm | - | - | - |
| 1787873476 | 12.78° C | 73% | - | 0 mm | - | - | - |
| 1787872612 | 12.78° C | 73% | - | 0 mm | - | - | - |
| 1787871652 | 12.78° C | 74% | - | 0 mm | - | - | - |
| 1787870787 | 12.22° C | 76% | - | 0 mm | - | - | - |
| 1787869828 | 11.11° C | 79% | - | 0 mm | - | - | - |
| 1787868965 | 10.56° C | 81% | - | 0 mm | - | - | - |
| 1787868100 | 10.56° C | 81% | - | 0 mm | - | - | - |
| 1787867140 | 10° C | 82% | - | 0 mm | - | - | - |
| 1787866277 | 10° C | 82% | - | 0 mm | - | - | - |
| 1787865412 | 10° C | 83% | - | 0 mm | - | - | - |
| 1787864452 | 10° C | 83% | - | 0 mm | - | - | - |
| 1787863588 | 10° C | 83% | - | 0 mm | - | - | - |
| 1787862629 | 10° C | 82% | - | 0 mm | - | - | - |
| 1787861764 | 10.56° C | 81% | - | 0 mm | - | - | - |
| 1787860901 | 10° C | 82% | - | 0 mm | - | - | - |
| 1787859940 | 10° C | 81% | - | 0 mm | - | - | - |
| 1787859076 | 10.56° C | 80% | - | 0 mm | - | - | - |
| 1787858212 | 10° C | 80% | - | 0 mm | - | - | - |
| 1787857252 | 10° C | 80% | - | 0 mm | - | - | - |
| 1787856388 | 10° C | 79% | - | 0 mm | - | - | - |
| 1787855428 | 10.56° C | 78% | - | 0 mm | - | - | - |
| 1787854564 | 10.56° C | 76% | - | 0 mm | - | - | - |
* Rain latest hour (hover to see other rain measurements)
** Current wind speed in m/s (hover to see current wind gust speed)